Kinross, Iowa
Current Conditions -  °F | °C
As of 10:15 PM on Tuesday 25 Nov 2014 (Local Time) from KOOA Reporting Station
Clear Clear  
Wind Chill: 13°   Ceiling: Unl
Heat Index: 22°   Visibility: 10mi
Dew Point: 19°   Wind: 8mph
Humidity: 88%   Direction: 140°SE
Pressure: 30.08"   Gusts: NA
Location:  41.4707°N, 92.1243°W
Report Text: KOOA 260415Z AUTO 14007KT 10SM CLR M05/M07 A3008 RMK AO2 T10531070
Loading
Personal Weather Stations






























Interactive Weather Map New forecast layout! Learn more

10-Day Weather Forecast

Advertisements
Track Severe Weather on mobile